sensor_id;sensor_type;location;lat;lon;timestamp;pressure;altitude;pressure_sealevel;temperature;humidity
6144;BME280;3103;49.492;8.474;2023-02-02T00:02:00;101115.13;;;7.89;71.96
6144;BME280;3103;49.492;8.474;2023-02-02T00:04:29;101112.84;;;7.80;72.32
6144;BME280;3103;49.492;8.474;2023-02-02T00:06:56;101118.38;;;7.71;72.87
6144;BME280;3103;49.492;8.474;2023-02-02T00:09:26;101109.31;;;7.72;72.88
6144;BME280;3103;49.492;8.474;2023-02-02T00:11:54;101111.19;;;7.79;73.37
6144;BME280;3103;49.492;8.474;2023-02-02T00:14:21;101109.13;;;7.81;72.86
6144;BME280;3103;49.492;8.474;2023-02-02T00:16:50;101110.56;;;7.83;73.05
6144;BME280;3103;49.492;8.474;2023-02-02T00:19:24;101111.19;;;7.85;73.25
6144;BME280;3103;49.492;8.474;2023-02-02T00:21:55;101107.91;;;7.83;73.35
6144;BME280;3103;49.492;8.474;2023-02-02T00:24:22;101113.88;;;7.79;73.80
6144;BME280;3103;49.492;8.474;2023-02-02T00:26:55;101110.38;;;7.78;74.08
6144;BME280;3103;49.492;8.474;2023-02-02T00:29:24;101114.91;;;7.78;73.74
6144;BME280;3103;49.492;8.474;2023-02-02T00:31:52;101117.78;;;7.83;73.70
6144;BME280;3103;49.492;8.474;2023-02-02T00:34:19;101122.72;;;7.86;73.54
6144;BME280;3103;49.492;8.474;2023-02-02T00:36:47;101114.88;;;7.84;74.00
6144;BME280;3103;49.492;8.474;2023-02-02T00:39:20;101121.28;;;7.90;73.75
6144;BME280;3103;49.492;8.474;2023-02-02T00:41:48;101127.03;;;7.87;74.03
6144;BME280;3103;49.492;8.474;2023-02-02T00:44:14;101126.19;;;7.86;74.36
6144;BME280;3103;49.492;8.474;2023-02-02T00:47:00;101119.66;;;7.89;73.91
6144;BME280;3103;49.492;8.474;2023-02-02T00:49:27;101129.31;;;7.90;73.65
6144;BME280;3103;49.492;8.474;2023-02-02T00:51:53;101124.78;;;7.90;73.89
6144;BME280;3103;49.492;8.474;2023-02-02T00:54:20;101122.91;;;7.97;74.00
6144;BME280;3103;49.492;8.474;2023-02-02T00:56:47;101125.59;;;7.97;73.92
6144;BME280;3103;49.492;8.474;2023-02-02T00:59:14;101133.84;;;8.02;73.39
6144;BME280;3103;49.492;8.474;2023-02-02T01:01:40;101138.34;;;8.02;73.44
6144;BME280;3103;49.492;8.474;2023-02-02T01:04:07;101133.22;;;8.00;73.74
6144;BME280;3103;49.492;8.474;2023-02-02T01:06:34;101127.84;;;8.00;73.59
6144;BME280;3103;49.492;8.474;2023-02-02T01:09:02;101135.88;;;8.00;73.69
6144;BME280;3103;49.492;8.474;2023-02-02T01:11:29;101134.44;;;7.98;73.84
6144;BME280;3103;49.492;8.474;2023-02-02T01:13:56;101137.75;;;8.00;74.02
6144;BME280;3103;49.492;8.474;2023-02-02T01:16:23;101123.75;;;7.98;73.77
6144;BME280;3103;49.492;8.474;2023-02-02T01:18:50;101129.94;;;7.92;74.03
6144;BME280;3103;49.492;8.474;2023-02-02T01:21:17;101129.53;;;7.88;74.57
6144;BME280;3103;49.492;8.474;2023-02-02T01:23:44;101125.00;;;7.95;73.91
6144;BME280;3103;49.492;8.474;2023-02-02T01:26:12;101124.16;;;8.01;74.08
6144;BME280;3103;49.492;8.474;2023-02-02T01:28:39;101126.63;;;7.96;73.61
6144;BME280;3103;49.492;8.474;2023-02-02T01:31:11;101128.28;;;8.04;73.28
6144;BME280;3103;49.492;8.474;2023-02-02T01:33:39;101121.47;;;8.01;73.56
6144;BME280;3103;49.492;8.474;2023-02-02T01:36:08;101118.00;;;7.94;73.73
6144;BME280;3103;49.492;8.474;2023-02-02T01:38:36;101130.94;;;7.97;73.91
6144;BME280;3103;49.492;8.474;2023-02-02T01:41:03;101122.53;;;7.94;73.81
6144;BME280;3103;49.492;8.474;2023-02-02T01:46:17;101124.38;;;7.93;74.64
6144;BME280;3103;49.492;8.474;2023-02-02T01:49:04;101127.44;;;7.97;74.40
6144;BME280;3103;49.492;8.474;2023-02-02T01:51:41;101121.91;;;7.92;74.50
6144;BME280;3103;49.492;8.474;2023-02-02T01:54:15;101128.28;;;7.91;74.62
6144;BME280;3103;49.492;8.474;2023-02-02T01:56:52;101121.28;;;7.90;74.97
6144;BME280;3103;49.492;8.474;2023-02-02T01:59:20;101117.97;;;7.88;75.20
6144;BME280;3103;49.492;8.474;2023-02-02T02:01:47;101117.97;;;7.88;74.80
6144;BME280;3103;49.492;8.474;2023-02-02T02:04:15;101127.03;;;7.80;75.40
6144;BME280;3103;49.492;8.474;2023-02-02T02:06:44;101127.47;;;7.90;75.24
6144;BME280;3103;49.492;8.474;2023-02-02T02:09:11;101131.38;;;7.94;75.20
6144;BME280;3103;49.492;8.474;2023-02-02T02:11:37;101128.69;;;8.01;75.06
6144;BME280;3103;49.492;8.474;2023-02-02T02:14:07;101131.78;;;7.91;75.39
6144;BME280;3103;49.492;8.474;2023-02-02T02:19:51;101125.16;;;7.87;75.67
6144;BME280;3103;49.492;8.474;2023-02-02T02:26:42;101120.66;;;7.88;76.01
6144;BME280;3103;49.492;8.474;2023-02-02T02:34:52;101133.03;;;7.89;76.10
6144;BME280;3103;49.492;8.474;2023-02-02T02:37:36;101128.25;;;7.84;76.41
6144;BME280;3103;49.492;8.474;2023-02-02T02:40:13;101137.75;;;7.93;76.34
6144;BME280;3103;49.492;8.474;2023-02-02T02:42:47;101130.75;;;7.92;75.93
6144;BME280;3103;49.492;8.474;2023-02-02T02:45:17;101120.66;;;7.88;76.05
6144;BME280;3103;49.492;8.474;2023-02-02T02:47:44;101128.50;;;7.89;76.23
6144;BME280;3103;49.492;8.474;2023-02-02T02:50:12;101127.22;;;7.85;76.70
6144;BME280;3103;49.492;8.474;2023-02-02T02:52:39;101128.28;;;7.91;76.14
6144;BME280;3103;49.492;8.474;2023-02-02T02:55:08;101127.84;;;7.81;76.50
6144;BME280;3103;49.492;8.474;2023-02-02T02:58:26;101129.53;;;7.88;76.73
6144;BME280;3103;49.492;8.474;2023-02-02T03:01:10;101127.44;;;7.84;76.54
6144;BME280;3103;49.492;8.474;2023-02-02T03:06:46;101133.63;;;7.91;76.47
6144;BME280;3103;49.492;8.474;2023-02-02T03:09:22;101133.19;;;7.87;76.25
6144;BME280;3103;49.492;8.474;2023-02-02T03:11:51;101130.53;;;7.81;78.05
6144;BME280;3103;49.492;8.474;2023-02-02T03:14:17;101141.22;;;7.87;78.45
6144;BME280;3103;49.492;8.474;2023-02-02T03:16:44;101136.28;;;7.84;79.16
6144;BME280;3103;49.492;8.474;2023-02-02T03:19:10;101139.00;;;7.91;79.14
6144;BME280;3103;49.492;8.474;2023-02-02T03:21:37;101128.66;;;7.88;79.16
6144;BME280;3103;49.492;8.474;2023-02-02T03:24:04;101137.75;;;7.93;78.90
6144;BME280;3103;49.492;8.474;2023-02-02T03:26:30;101135.28;;;7.92;78.83
6144;BME280;3103;49.492;8.474;2023-02-02T03:28:57;101140.22;;;7.95;78.40
6144;BME280;3103;49.492;8.474;2023-02-02T03:31:26;101138.78;;;7.92;78.78
6144;BME280;3103;49.492;8.474;2023-02-02T03:33:54;101137.34;;;7.96;78.23
6144;BME280;3103;49.492;8.474;2023-02-02T03:36:21;101137.75;;;7.93;78.50
6144;BME280;3103;49.492;8.474;2023-02-02T03:38:48;101139.81;;;7.98;77.85
6144;BME280;3103;49.492;8.474;2023-02-02T03:41:14;101133.63;;;7.97;78.31
6144;BME280;3103;49.492;8.474;2023-02-02T03:43:41;101131.16;;;7.96;77.95
6144;BME280;3103;49.492;8.474;2023-02-02T03:46:07;101140.41;;;8.00;77.55
6144;BME280;3103;49.492;8.474;2023-02-02T03:48:35;101135.47;;;7.84;78.66
6144;BME280;3103;49.492;8.474;2023-02-02T03:51:11;101131.97;;;7.83;78.85
6144;BME280;3103;49.492;8.474;2023-02-02T03:53:39;101133.22;;;7.81;79.50
6144;BME280;3103;49.492;8.474;2023-02-02T03:56:06;101131.56;;;7.80;79.21
6144;BME280;3103;49.492;8.474;2023-02-02T03:58:33;101137.72;;;7.87;78.28
6144;BME280;3103;49.492;8.474;2023-02-02T04:01:08;101141.88;;;7.89;78.05
6144;BME280;3103;49.492;8.474;2023-02-02T04:03:36;101141.44;;;7.99;78.13
6144;BME280;3103;49.492;8.474;2023-02-02T04:06:02;101148.88;;;7.97;78.04
6144;BME280;3103;49.492;8.474;2023-02-02T04:08:29;101154.03;;;8.05;77.26
6144;BME280;3103;49.492;8.474;2023-02-02T04:10:56;101151.53;;;7.97;77.14
6144;BME280;3103;49.492;8.474;2023-02-02T04:13:23;101146.78;;;7.99;76.81
6144;BME280;3103;49.492;8.474;2023-02-02T04:15:57;101160.38;;;7.97;77.50
6144;BME280;3103;49.492;8.474;2023-02-02T04:18:25;101159.16;;;8.00;76.96
6144;BME280;3103;49.492;8.474;2023-02-02T04:20:57;101160.78;;;8.01;77.05
6144;BME280;3103;49.492;8.474;2023-02-02T04:23:24;101157.31;;;8.07;76.73
6144;BME280;3103;49.492;8.474;2023-02-02T04:25:51;101155.88;;;7.91;76.56
6144;BME280;3103;49.492;8.474;2023-02-02T04:28:18;101162.66;;;8.07;76.71
6144;BME280;3103;49.492;8.474;2023-02-02T04:30:45;101161.63;;;7.95;76.70
6144;BME280;3103;49.492;8.474;2023-02-02T04:33:12;101154.84;;;7.92;76.39
6144;BME280;3103;49.492;8.474;2023-02-02T04:35:38;101161.63;;;7.95;77.12
6144;BME280;3103;49.492;8.474;2023-02-02T04:38:05;101162.44;;;8.02;77.01
6144;BME280;3103;49.492;8.474;2023-02-02T04:40:32;101173.78;;;8.04;76.74
6144;BME280;3103;49.492;8.474;2023-02-02T04:42:59;101164.50;;;8.00;76.50
6144;BME280;3103;49.492;8.474;2023-02-02T04:45:26;101168.22;;;7.99;76.52
6144;BME280;3103;49.492;8.474;2023-02-02T04:47:53;101170.88;;;7.86;76.77
6144;BME280;3103;49.492;8.474;2023-02-02T04:50:19;101171.91;;;7.98;76.16
6144;BME280;3103;49.492;8.474;2023-02-02T04:52:46;101168.22;;;7.99;75.74
6144;BME280;3103;49.492;8.474;2023-02-02T04:55:13;101167.38;;;7.98;76.19
6144;BME280;3103;49.492;8.474;2023-02-02T04:57:40;101168.00;;;7.94;76.19
6144;BME280;3103;49.492;8.474;2023-02-02T05:00:07;101172.75;;;7.98;75.79
6144;BME280;3103;49.492;8.474;2023-02-02T05:02:38;101169.84;;;8.00;75.19
6144;BME280;3103;49.492;8.474;2023-02-02T05:05:08;101177.69;;;7.95;75.70
6144;BME280;3103;49.492;8.474;2023-02-02T05:07:35;101176.03;;;7.94;75.15
6144;BME280;3103;49.492;8.474;2023-02-02T05:10:03;101181.38;;;7.94;75.19
6144;BME280;3103;49.492;8.474;2023-02-02T05:12:30;101187.97;;;7.98;75.56
6144;BME280;3103;49.492;8.474;2023-02-02T05:14:56;101191.25;;;8.00;75.24
6144;BME280;3103;49.492;8.474;2023-02-02T05:17:26;101187.97;;;7.91;75.28
6144;BME280;3103;49.492;8.474;2023-02-02T05:19:53;101192.91;;;7.94;75.42
6144;BME280;3103;49.492;8.474;2023-02-02T05:22:19;101196.19;;;7.96;75.58
6144;BME280;3103;49.492;8.474;2023-02-02T05:24:46;101196.19;;;7.96;75.76
6144;BME280;3103;49.492;8.474;2023-02-02T05:27:13;101199.53;;;8.05;74.93
6144;BME280;3103;49.492;8.474;2023-02-02T05:29:39;101189.84;;;8.11;75.17
6144;BME280;3103;49.492;8.474;2023-02-02T05:32:06;101195.81;;;8.19;75.04
6144;BME280;3103;49.492;8.474;2023-02-02T05:34:33;101200.75;;;8.09;74.87
6144;BME280;3103;49.492;8.474;2023-02-02T05:36:59;101212.28;;;8.03;75.37
6144;BME280;3103;49.492;8.474;2023-02-02T05:39:26;101204.63;;;8.00;75.16
6144;BME280;3103;49.492;8.474;2023-02-02T05:41:53;101211.06;;;8.06;74.90
6144;BME280;3103;49.492;8.474;2023-02-02T05:44:19;101213.94;;;8.11;74.82
6144;BME280;3103;49.492;8.474;2023-02-02T05:46:46;101215.16;;;8.15;74.93
6144;BME280;3103;49.492;8.474;2023-02-02T05:49:13;101222.16;;;8.09;74.86
6144;BME280;3103;49.492;8.474;2023-02-02T05:51:43;101225.06;;;8.08;74.94
6144;BME280;3103;49.492;8.474;2023-02-02T05:54:12;101227.94;;;8.06;75.13
6144;BME280;3103;49.492;8.474;2023-02-02T05:56:42;101226.69;;;8.09;75.29
6144;BME280;3103;49.492;8.474;2023-02-02T05:59:09;101221.53;;;8.00;75.39
6144;BME280;3103;49.492;8.474;2023-02-02T06:01:36;101228.72;;;8.00;76.18
6144;BME280;3103;49.492;8.474;2023-02-02T06:04:02;101227.09;;;7.92;75.99
6144;BME280;3103;49.492;8.474;2023-02-02T06:06:29;101227.53;;;8.02;76.09
6144;BME280;3103;49.492;8.474;2023-02-02T06:08:55;101241.53;;;8.11;75.82
6144;BME280;3103;49.492;8.474;2023-02-02T06:11:23;101227.31;;;8.04;75.94
6144;BME280;3103;49.492;8.474;2023-02-02T06:13:50;101224.00;;;8.02;75.80
6144;BME280;3103;49.492;8.474;2023-02-02T06:16:17;101232.44;;;7.99;76.03
6144;BME280;3103;49.492;8.474;2023-02-02T06:18:43;101235.72;;;8.01;76.30
6144;BME280;3103;49.492;8.474;2023-02-02T06:21:10;101241.72;;;8.03;75.84
6144;BME280;3103;49.492;8.474;2023-02-02T06:23:37;101239.88;;;8.03;75.92
6144;BME280;3103;49.492;8.474;2023-02-02T06:26:04;101236.75;;;8.00;76.26
6144;BME280;3103;49.492;8.474;2023-02-02T06:28:30;101234.91;;;8.00;76.01
6144;BME280;3103;49.492;8.474;2023-02-02T06:31:08;101245.81;;;7.99;76.41
6144;BME280;3103;49.492;8.474;2023-02-02T06:33:36;101239.44;;;7.93;76.96
6144;BME280;3103;49.492;8.474;2023-02-02T06:36:04;101245.59;;;7.94;76.69
6144;BME280;3103;49.492;8.474;2023-02-02T06:38:32;101243.31;;;7.84;76.92
6144;BME280;3103;49.492;8.474;2023-02-02T06:40:59;101223.75;;;7.84;77.56
6144;BME280;3103;49.492;8.474;2023-02-02T06:43:26;101241.91;;;7.88;77.68
6144;BME280;3103;49.492;8.474;2023-02-02T06:45:53;101242.47;;;7.84;78.06
6144;BME280;3103;49.492;8.474;2023-02-02T06:48:22;101250.75;;;7.89;77.78
6144;BME280;3103;49.492;8.474;2023-02-02T06:50:48;101245.16;;;7.84;77.56
6144;BME280;3103;49.492;8.474;2023-02-02T06:53:15;101250.91;;;7.87;77.63
6144;BME280;3103;49.492;8.474;2023-02-02T06:55:54;101245.16;;;7.84;78.06
6144;BME280;3103;49.492;8.474;2023-02-02T06:58:21;101241.66;;;7.83;77.94
6144;BME280;3103;49.492;8.474;2023-02-02T07:00:48;101232.00;;;7.82;77.97
6144;BME280;3103;49.492;8.474;2023-02-02T07:03:15;101241.25;;;7.80;78.12
6144;BME280;3103;49.492;8.474;2023-02-02T07:05:42;101240.22;;;7.87;77.28
6144;BME280;3103;49.492;8.474;2023-02-02T07:08:09;101243.72;;;7.88;77.42
6144;BME280;3103;49.492;8.474;2023-02-02T07:10:37;101243.91;;;7.80;78.46
6144;BME280;3103;49.492;8.474;2023-02-02T07:13:24;101244.75;;;7.80;78.81
6144;BME280;3103;49.492;8.474;2023-02-02T07:15:50;101254.00;;;7.78;79.38
6144;BME280;3103;49.492;8.474;2023-02-02T07:18:17;101246.19;;;7.83;80.10
6144;BME280;3103;49.492;8.474;2023-02-02T07:20:44;101241.66;;;7.77;79.26
6144;BME280;3103;49.492;8.474;2023-02-02T07:23:10;101248.25;;;7.81;79.66
6144;BME280;3103;49.492;8.474;2023-02-02T07:25:37;101234.44;;;7.77;79.45
6144;BME280;3103;49.492;8.474;2023-02-02T07:28:04;101255.44;;;7.80;79.30
6144;BME280;3103;49.492;8.474;2023-02-02T07:30:31;101249.72;;;7.90;78.34
6144;BME280;3103;49.492;8.474;2023-02-02T07:32:58;101259.78;;;7.88;78.00
6144;BME280;3103;49.492;8.474;2023-02-02T07:35:24;101266.41;;;7.92;78.46
6144;BME280;3103;49.492;8.474;2023-02-02T07:37:53;101262.03;;;7.84;78.39
6144;BME280;3103;49.492;8.474;2023-02-02T07:40:19;101263.47;;;7.87;78.81
6144;BME280;3103;49.492;8.474;2023-02-02T07:42:47;101273.59;;;7.98;78.30
6144;BME280;3103;49.492;8.474;2023-02-02T07:45:14;101285.38;;;8.03;78.13
6144;BME280;3103;49.492;8.474;2023-02-02T07:47:59;101288.44;;;8.00;78.18
6144;BME280;3103;49.492;8.474;2023-02-02T07:50:27;101290.06;;;8.01;78.07
6144;BME280;3103;49.492;8.474;2023-02-02T07:52:55;101304.06;;;7.97;78.09
6144;BME280;3103;49.492;8.474;2023-02-02T07:55:22;101297.94;;;8.03;78.19
6144;BME280;3103;49.492;8.474;2023-02-02T07:57:50;101295.22;;;7.96;78.49
6144;BME280;3103;49.492;8.474;2023-02-02T08:00:17;101283.47;;;7.97;78.17
6144;BME280;3103;49.492;8.474;2023-02-02T08:02:47;101287.81;;;7.92;79.07
6144;BME280;3103;49.492;8.474;2023-02-02T08:05:14;101282.88;;;8.02;78.95
6144;BME280;3103;49.492;8.474;2023-02-02T08:07:41;101278.75;;;7.93;78.91
6144;BME280;3103;49.492;8.474;2023-02-02T08:10:10;101279.56;;;7.93;79.03
6144;BME280;3103;49.492;8.474;2023-02-02T08:12:37;101281.00;;;7.96;78.81
6144;BME280;3103;49.492;8.474;2023-02-02T08:15:04;101287.81;;;7.98;78.52
6144;BME280;3103;49.492;8.474;2023-02-02T08:17:31;101298.09;;;7.95;78.41
6144;BME280;3103;49.492;8.474;2023-02-02T08:19:58;101300.78;;;7.95;78.97
6144;BME280;3103;49.492;8.474;2023-02-02T08:22:25;101302.88;;;8.06;78.41
6144;BME280;3103;49.492;8.474;2023-02-02T08:24:51;101309.03;;;8.07;77.76
6144;BME280;3103;49.492;8.474;2023-02-02T08:27:18;101294.59;;;8.01;77.96
6144;BME280;3103;49.492;8.474;2023-02-02T08:29:45;101284.94;;;8.00;78.10
6144;BME280;3103;49.492;8.474;2023-02-02T08:32:11;101288.84;;;7.97;78.19
6144;BME280;3103;49.492;8.474;2023-02-02T08:34:38;101290.72;;;8.03;77.90
6144;BME280;3103;49.492;8.474;2023-02-02T08:37:06;101297.53;;;8.06;77.74
6144;BME280;3103;49.492;8.474;2023-02-02T08:39:33;101311.94;;;8.05;77.71
6144;BME280;3103;49.492;8.474;2023-02-02T08:41:59;101302.41;;;7.96;78.06
6144;BME280;3103;49.492;8.474;2023-02-02T08:44:26;101303.28;;;8.03;77.65
6144;BME280;3103;49.492;8.474;2023-02-02T08:47:13;101299.16;;;8.07;77.46
6144;BME280;3103;49.492;8.474;2023-02-02T08:49:39;101297.28;;;7.94;77.91
6144;BME280;3103;49.492;8.474;2023-02-02T08:52:07;101295.88;;;8.05;77.56
6144;BME280;3103;49.492;8.474;2023-02-02T08:54:34;101300.59;;;8.16;77.13
6144;BME280;3103;49.492;8.474;2023-02-02T08:57:01;101290.97;;;8.22;76.71
6144;BME280;3103;49.492;8.474;2023-02-02T08:59:28;101297.97;;;8.29;76.40
6144;BME280;3103;49.492;8.474;2023-02-02T09:01:54;101288.50;;;8.27;76.35
6144;BME280;3103;49.492;8.474;2023-02-02T09:04:22;101291.19;;;8.33;75.35
6144;BME280;3103;49.492;8.474;2023-02-02T09:06:48;101293.63;;;8.28;75.39
6144;BME280;3103;49.492;8.474;2023-02-02T09:09:15;101308.28;;;8.32;75.48
6144;BME280;3103;49.492;8.474;2023-02-02T09:11:42;101313.03;;;8.30;74.88
6144;BME280;3103;49.492;8.474;2023-02-02T09:14:11;101315.28;;;8.33;74.88
6144;BME280;3103;49.492;8.474;2023-02-02T09:16:37;101321.22;;;8.29;74.58
6144;BME280;3103;49.492;8.474;2023-02-02T09:19:05;101314.91;;;8.43;74.56
6144;BME280;3103;49.492;8.474;2023-02-02T09:21:32;101319.06;;;8.59;73.85
6144;BME280;3103;49.492;8.474;2023-02-02T09:24:11;101304.22;;;8.56;74.02
6144;BME280;3103;49.492;8.474;2023-02-02T09:26:38;101307.53;;;8.45;73.58
6144;BME280;3103;49.492;8.474;2023-02-02T09:29:11;101322.31;;;8.41;73.32
6144;BME280;3103;49.492;8.474;2023-02-02T09:31:38;101314.09;;;8.56;72.90
6144;BME280;3103;49.492;8.474;2023-02-02T09:34:07;101319.28;;;8.64;72.52
6144;BME280;3103;49.492;8.474;2023-02-02T09:36:35;101319.06;;;8.66;72.33
6144;BME280;3103;49.492;8.474;2023-02-02T09:39:03;101316.56;;;8.57;72.51
6144;BME280;3103;49.492;8.474;2023-02-02T09:50:01;101328.34;;;8.63;71.72
6144;BME280;3103;49.492;8.474;2023-02-02T09:52:37;101328.53;;;8.68;71.92
6144;BME280;3103;49.492;8.474;2023-02-02T09:55:28;101335.13;;;8.66;71.65
6144;BME280;3103;49.492;8.474;2023-02-02T09:58:06;101340.09;;;8.82;71.06
6144;BME280;3103;49.492;8.474;2023-02-02T10:00:44;101337.41;;;8.69;71.27
6144;BME280;3103;49.492;8.474;2023-02-02T10:03:26;101350.81;;;8.75;71.13
6144;BME280;3103;49.492;8.474;2023-02-02T10:06:01;101341.13;;;8.68;71.07
6144;BME280;3103;49.492;8.474;2023-02-02T10:08:35;101344.84;;;8.73;71.69
6144;BME280;3103;49.492;8.474;2023-02-02T10:11:20;101348.72;;;8.71;71.40
6144;BME280;3103;49.492;8.474;2023-02-02T10:13:51;101353.69;;;8.80;71.07
6144;BME280;3103;49.492;8.474;2023-02-02T10:16:22;101362.78;;;8.73;70.53
6144;BME280;3103;49.492;8.474;2023-02-02T10:19:04;101364.00;;;8.83;70.39
6144;BME280;3103;49.492;8.474;2023-02-02T10:21:42;101372.03;;;8.83;70.02
6144;BME280;3103;49.492;8.474;2023-02-02T10:24:22;101383.78;;;8.82;70.22
6144;BME280;3103;49.492;8.474;2023-02-02T10:26:52;101379.88;;;8.98;69.82
6144;BME280;3103;49.492;8.474;2023-02-02T10:32:12;101394.09;;;8.99;69.74
6144;BME280;3103;49.492;8.474;2023-02-02T10:37:48;101385.25;;;8.91;69.46
6144;BME280;3103;49.492;8.474;2023-02-02T10:43:23;101386.50;;;9.02;70.00
6144;BME280;3103;49.492;8.474;2023-02-02T10:46:30;101386.91;;;9.06;69.00
6144;BME280;3103;49.492;8.474;2023-02-02T10:49:13;101374.72;;;9.10;69.17
6144;BME280;3103;49.492;8.474;2023-02-02T11:03:00;101372.88;;;8.97;69.60
6144;BME280;3103;49.492;8.474;2023-02-02T11:05:30;101384.41;;;8.98;69.96
6144;BME280;3103;49.492;8.474;2023-02-02T11:08:18;101377.63;;;9.15;69.31
6144;BME280;3103;49.492;8.474;2023-02-02T11:10:49;101384.41;;;9.11;69.55
6144;BME280;3103;49.492;8.474;2023-02-02T11:13:26;101392.47;;;9.17;68.84
6144;BME280;3103;49.492;8.474;2023-02-02T11:16:18;101392.47;;;9.11;69.01
6144;BME280;3103;49.492;8.474;2023-02-02T11:18:45;101381.97;;;9.16;69.27
6144;BME280;3103;49.492;8.474;2023-02-02T11:21:25;101384.84;;;9.21;69.01
6144;BME280;3103;49.492;8.474;2023-02-02T11:26:43;101371.63;;;9.33;68.56
6144;BME280;3103;49.492;8.474;2023-02-02T11:29:17;101374.31;;;9.26;68.83
6144;BME280;3103;49.492;8.474;2023-02-02T11:31:46;101378.22;;;9.23;68.72
6144;BME280;3103;49.492;8.474;2023-02-02T11:34:26;101390.41;;;9.26;69.32
6144;BME280;3103;49.492;8.474;2023-02-02T11:37:02;101391.63;;;9.50;68.69
6144;BME280;3103;49.492;8.474;2023-02-02T11:39:36;101390.78;;;9.49;67.93
6144;BME280;3103;49.492;8.474;2023-02-02T11:42:05;101385.84;;;9.46;67.89
6144;BME280;3103;49.492;8.474;2023-02-02T11:44:33;101387.09;;;9.44;68.57
6144;BME280;3103;49.492;8.474;2023-02-02T11:47:02;101391.44;;;9.45;67.83
6144;BME280;3103;49.492;8.474;2023-02-02T11:49:37;101389.34;;;9.47;67.78
6144;BME280;3103;49.492;8.474;2023-02-02T11:52:15;101378.38;;;9.62;67.52
6144;BME280;3103;49.492;8.474;2023-02-02T11:54:46;101376.75;;;9.54;67.52
6144;BME280;3103;49.492;8.474;2023-02-02T11:57:22;101388.94;;;9.43;68.37
6144;BME280;3103;49.492;8.474;2023-02-02T12:02:44;101368.94;;;9.39;67.93
6144;BME280;3103;49.492;8.474;2023-02-02T12:07:45;101379.66;;;9.46;67.64
6144;BME280;3103;49.492;8.474;2023-02-02T12:13:08;101370.78;;;9.45;67.55
6144;BME280;3103;49.492;8.474;2023-02-02T12:16:03;101379.22;;;9.42;67.67
6144;BME280;3103;49.492;8.474;2023-02-02T12:21:30;101376.16;;;9.45;67.55
6144;BME280;3103;49.492;8.474;2023-02-02T12:27:15;101359.34;;;9.70;66.33
6144;BME280;3103;49.492;8.474;2023-02-02T12:35:04;101362.88;;;9.70;66.48
6144;BME280;3103;49.492;8.474;2023-02-02T12:40:40;101361.44;;;9.74;66.54
6144;BME280;3103;49.492;8.474;2023-02-02T12:45:54;101370.31;;;9.75;66.75
6144;BME280;3103;49.492;8.474;2023-02-02T12:48:44;101359.09;;;9.91;66.38
6144;BME280;3103;49.492;8.474;2023-02-02T12:54:36;101364.16;;;10.12;65.41
6144;BME280;3103;49.492;8.474;2023-02-02T12:57:36;101362.47;;;10.25;64.33
6144;BME280;3103;49.492;8.474;2023-02-02T13:00:17;101367.03;;;10.24;64.85
6144;BME280;3103;49.492;8.474;2023-02-02T13:08:48;101351.38;;;10.08;65.76
6144;BME280;3103;49.492;8.474;2023-02-02T13:11:49;101364.13;;;10.19;65.24
6144;BME280;3103;49.492;8.474;2023-02-02T13:14:26;101363.31;;;10.19;64.71
6144;BME280;3103;49.492;8.474;2023-02-02T13:17:04;101347.25;;;10.05;65.36
6144;BME280;3103;49.492;8.474;2023-02-02T13:19:48;101357.56;;;10.08;65.05
6144;BME280;3103;49.492;8.474;2023-02-02T13:22:32;101352.25;;;10.02;65.57
6144;BME280;3103;49.492;8.474;2023-02-02T13:25:04;101362.34;;;10.06;65.60
6144;BME280;3103;49.492;8.474;2023-02-02T13:27:35;101355.09;;;10.07;65.28
6144;BME280;3103;49.492;8.474;2023-02-02T13:30:09;101370.16;;;10.15;65.00
6144;BME280;3103;49.492;8.474;2023-02-02T13:32:41;101363.97;;;10.07;65.45
6144;BME280;3103;49.492;8.474;2023-02-02T13:35:22;101361.28;;;10.07;65.58
6144;BME280;3103;49.492;8.474;2023-02-02T13:38:06;101370.38;;;10.06;65.29
6144;BME280;3103;49.492;8.474;2023-02-02T13:40:39;101366.19;;;10.24;65.43
6144;BME280;3103;49.492;8.474;2023-02-02T13:43:20;101370.47;;;10.38;65.16
6144;BME280;3103;49.492;8.474;2023-02-02T14:04:20;101386.28;;;10.08;66.52
6144;BME280;3103;49.492;8.474;2023-02-02T14:06:55;101396.19;;;10.07;67.31
6144;BME280;3103;49.492;8.474;2023-02-02T14:09:25;101389.19;;;10.06;66.56
6144;BME280;3103;49.492;8.474;2023-02-02T14:11:58;101393.94;;;10.04;66.84
6144;BME280;3103;49.492;8.474;2023-02-02T14:14:27;101388.53;;;10.18;66.57
6144;BME280;3103;49.492;8.474;2023-02-02T14:17:00;101394.50;;;10.13;67.02
6144;BME280;3103;49.492;8.474;2023-02-02T14:22:45;101391.88;;;10.06;66.87
6144;BME280;3103;49.492;8.474;2023-02-02T14:28:00;101403.47;;;10.00;66.86
6144;BME280;3103;49.492;8.474;2023-02-02T14:30:31;101401.00;;;9.92;67.01
6144;BME280;3103;49.492;8.474;2023-02-02T14:33:38;101408.84;;;9.94;67.41
6144;BME280;3103;49.492;8.474;2023-02-02T14:36:12;101419.78;;;9.92;66.93
6144;BME280;3103;49.492;8.474;2023-02-02T14:38:52;101416.47;;;9.97;67.60
6144;BME280;3103;49.492;8.474;2023-02-02T14:44:14;101417.06;;;9.99;67.21
6144;BME280;3103;49.492;8.474;2023-02-02T14:46:41;101422.25;;;10.00;67.12
6144;BME280;3103;49.492;8.474;2023-02-02T14:49:16;101435.47;;;9.95;66.78
6144;BME280;3103;49.492;8.474;2023-02-02T14:51:58;101437.72;;;10.05;66.98
6144;BME280;3103;49.492;8.474;2023-02-02T14:54:29;101434.63;;;10.08;66.49
6144;BME280;3103;49.492;8.474;2023-02-02T14:57:16;101444.13;;;9.97;66.88
6144;BME280;3103;49.492;8.474;2023-02-02T14:59:45;101450.97;;;9.93;67.02
6144;BME280;3103;49.492;8.474;2023-02-02T15:02:17;101450.16;;;9.93;67.14
6144;BME280;3103;49.492;8.474;2023-02-02T15:04:45;101459.22;;;9.85;67.58
6144;BME280;3103;49.492;8.474;2023-02-02T15:09:49;101477.03;;;9.73;67.78
6144;BME280;3103;49.492;8.474;2023-02-02T15:12:20;101471.81;;;9.98;67.70
6144;BME280;3103;49.492;8.474;2023-02-02T15:15:18;101474.09;;;10.01;67.10
6144;BME280;3103;49.492;8.474;2023-02-02T15:18:05;101486.06;;;10.05;66.47
6144;BME280;3103;49.492;8.474;2023-02-02T15:20:46;101488.94;;;9.97;66.57
6144;BME280;3103;49.492;8.474;2023-02-02T15:23:29;101490.59;;;9.98;66.95
6144;BME280;3103;49.492;8.474;2023-02-02T15:26:20;101484.00;;;10.00;66.82
6144;BME280;3103;49.492;8.474;2023-02-02T15:28:54;101489.78;;;9.97;66.58
6144;BME280;3103;49.492;8.474;2023-02-02T15:31:32;101491.91;;;9.75;66.69
6144;BME280;3103;49.492;8.474;2023-02-02T15:34:12;101500.53;;;9.71;67.36
6144;BME280;3103;49.492;8.474;2023-02-02T15:36:43;101498.91;;;9.70;67.57